Jimmy Lake, Canada
Current Conditions -  °F | °C
As of 8:29 PM on Monday 22 Dec 2014 (Local Time) from CWHN Reporting Station
Overcast Overcast  
Wind Chill: 21°   Ceiling: 900
Heat Index: 21°   Visibility: 9mi
Dew Point: 18°   Wind: 0mph
Humidity: 86%   Direction: NA
Pressure: 29.93"   Gusts: NA
Location:  54.9°N, 109.97°W
Report Text: CWHN 230229Z AUTO 00000KT 9SM BKN009 OVC044 M06/M08 A2993
Loading
Personal Weather Stations






























Interactive Weather Map New forecast layout! Learn more

10-Day Weather Forecast

Advertisements
Track Severe Weather on mobile